首页
METAR-TAF:

METAR-TAF

机场 :

烏日霍羅德國際機場

乌日霍罗德, 乌克兰

纬度: 48-38-05N, 经度: 022-15-53E, 海拔: 117米

当前天气观测

该预报发布于17分钟前的13:30 UTC
静风
温度 3°C
湿度 87%
气压 1016 hPa
能見度: 5000
阴天层高于2000英尺
轻雾

METAR: UKLU 271330Z 00000MPS 5000 BR OVC020 03/01 Q1016 R10/090070 NOSIG

时间: 15:47 (13:47 UTC)

预报

该预报发布于2小时和39分钟前的11:08 UTC
预报有效从27日的 12点(UTC)到 27日的 21点(UTC)
风速6节,风向西
能見度: 6000
阴天层高于2000英尺
短暂存在
从 27日的 12点(UTC)到 27日的 18点(UTC)
能見度: 2100
阴天层高于700英尺
轻雾

TAF: UKLU 271108Z 2712/2721 27003MPS 6000 OVC020 TX04/2714Z TN00/2721Z TEMPO 2712/2718 2100 BR OVC007

超过4000个机场的气象观测和天气预报(METAR&TAF报告)。

可查询的气象台以黄色和红色小点在地图上表示。

将鼠标移到小点上方,可查看气象台名称。

然后点击查看天气观测和预报。

如需切换地图:点击带黑十字的绿色按钮放大地图;点击带横线的绿色按钮缩小地图;或者点击绿色箭头查看邻近地区的地图。


METAR-TAF: